createdAt,value
2023-05-05T00:00:16.728Z,435.00
2023-05-05T00:01:16.760Z,437.00
2023-05-05T00:02:16.782Z,437.00
2023-05-05T00:03:16.803Z,436.00
2023-05-05T00:04:16.797Z,435.00
2023-05-05T00:05:16.727Z,435.00
2023-05-05T00:06:16.721Z,433.00
2023-05-05T00:07:16.724Z,434.00
2023-05-05T00:08:16.734Z,434.00
2023-05-05T00:09:16.718Z,432.00
2023-05-05T00:10:16.692Z,433.00
2023-05-05T00:11:16.731Z,433.00
2023-05-05T00:12:16.747Z,433.00
2023-05-05T00:13:16.727Z,433.00
2023-05-05T00:14:16.701Z,433.00
2023-05-05T00:15:16.722Z,436.00
2023-05-05T00:16:16.760Z,436.00
2023-05-05T00:17:16.803Z,437.00
2023-05-05T00:18:16.703Z,439.00
2023-05-05T00:19:16.731Z,440.00
2023-05-05T00:20:16.732Z,441.00
2023-05-05T00:21:16.740Z,439.00
2023-05-05T00:22:16.858Z,436.00
2023-05-05T00:23:16.736Z,435.00
2023-05-05T00:24:16.731Z,435.00
2023-05-05T00:25:16.763Z,437.00
2023-05-05T00:26:16.783Z,437.00
2023-05-05T00:27:16.806Z,436.00
2023-05-05T00:28:16.833Z,436.00
2023-05-05T00:29:16.836Z,436.00
2023-05-05T00:30:16.826Z,438.00
2023-05-05T00:31:16.903Z,440.00
2023-05-05T00:32:16.906Z,438.00
2023-05-05T00:33:16.928Z,436.00
2023-05-05T00:34:16.940Z,437.00
2023-05-05T00:35:16.992Z,437.00
2023-05-05T00:36:17.022Z,436.00
2023-05-05T00:37:17.075Z,435.00
2023-05-05T00:38:17.086Z,436.00
2023-05-05T00:39:17.124Z,439.00
2023-05-05T00:40:17.175Z,441.00
2023-05-05T00:41:17.176Z,439.00
2023-05-05T00:42:17.177Z,440.00
2023-05-05T00:43:17.188Z,440.00
2023-05-05T00:44:17.205Z,441.00
2023-05-05T00:45:17.156Z,440.00
2023-05-05T00:46:17.192Z,438.00
2023-05-05T00:47:17.202Z,438.00
2023-05-05T00:48:17.210Z,438.00
2023-05-05T00:49:17.241Z,436.00
2023-05-05T00:50:17.185Z,435.00
2023-05-05T00:51:17.212Z,434.00
2023-05-05T00:52:17.238Z,433.00
2023-05-05T00:53:17.225Z,431.00
2023-05-05T00:54:17.190Z,431.00
2023-05-05T00:55:17.208Z,432.00
2023-05-05T00:56:17.226Z,432.00
2023-05-05T00:57:17.207Z,433.00
2023-05-05T00:58:17.203Z,435.00
2023-05-05T00:59:17.212Z,437.00
2023-05-05T01:00:17.175Z,438.00
2023-05-05T01:01:17.251Z,437.00
2023-05-05T01:02:17.183Z,436.00
2023-05-05T01:03:17.322Z,437.00
2023-05-05T01:04:17.201Z,437.00
2023-05-05T01:05:17.180Z,440.00
2023-05-05T01:06:17.180Z,441.00
2023-05-05T01:07:17.163Z,442.00
2023-05-05T01:08:17.147Z,442.00
2023-05-05T01:09:17.178Z,442.00
2023-05-05T01:10:20.306Z,442.00
2023-05-05T01:11:17.192Z,439.00
2023-05-05T01:12:17.182Z,440.00
2023-05-05T01:13:17.198Z,439.00
2023-05-05T01:14:17.175Z,439.00
2023-05-05T01:15:17.150Z,438.00
2023-05-05T01:16:17.176Z,437.00
2023-05-05T01:17:17.124Z,438.00
2023-05-05T01:18:17.110Z,439.00
2023-05-05T01:19:17.137Z,439.00
2023-05-05T01:20:17.102Z,437.00
2023-05-05T01:21:17.119Z,439.00
2023-05-05T01:22:17.104Z,440.00
2023-05-05T01:23:17.119Z,441.00
2023-05-05T01:24:17.109Z,443.00
2023-05-05T01:25:17.082Z,444.00
2023-05-05T01:26:17.082Z,443.00
2023-05-05T01:27:17.053Z,442.00
2023-05-05T01:28:17.071Z,442.00
2023-05-05T01:29:17.115Z,444.00
2023-05-05T01:30:17.047Z,442.00
2023-05-05T01:31:17.120Z,443.00
2023-05-05T01:32:17.035Z,443.00
2023-05-05T01:33:17.047Z,443.00
2023-05-05T01:34:17.026Z,443.00
2023-05-05T01:35:16.992Z,442.00
2023-05-05T01:36:17.007Z,440.00
2023-05-05T01:37:16.989Z,439.00
2023-05-05T01:38:17.002Z,438.00
2023-05-05T01:39:17.025Z,437.00
2023-05-05T01:40:16.992Z,437.00
2023-05-05T01:41:16.991Z,437.00
2023-05-05T01:42:16.962Z,437.00
2023-05-05T01:43:16.981Z,436.00
2023-05-05T01:44:16.956Z,435.00
2023-05-05T01:45:16.942Z,433.00
2023-05-05T01:46:16.985Z,433.00
2023-05-05T01:47:17.011Z,430.00
2023-05-05T01:48:16.898Z,432.00
2023-05-05T01:49:16.927Z,431.00
2023-05-05T01:50:16.922Z,431.00
2023-05-05T01:51:17.030Z,433.00
2023-05-05T01:52:17.547Z,435.00
2023-05-05T01:53:16.894Z,436.00
2023-05-05T01:54:16.896Z,435.00
2023-05-05T01:55:16.897Z,435.00
2023-05-05T01:56:16.877Z,437.00
2023-05-05T01:57:16.851Z,438.00
2023-05-05T01:58:16.846Z,438.00
2023-05-05T01:59:16.865Z,439.00
2023-05-05T02:00:16.815Z,440.00
2023-05-05T02:01:16.880Z,438.00
2023-05-05T02:02:16.824Z,436.00
2023-05-05T02:03:16.945Z,437.00
2023-05-05T02:04:16.816Z,437.00
2023-05-05T02:05:16.823Z,437.00
2023-05-05T02:06:16.812Z,441.00
2023-05-05T02:07:16.798Z,441.00
2023-05-05T02:08:16.806Z,441.00
2023-05-05T02:09:16.811Z,441.00
2023-05-05T02:10:16.779Z,440.00
2023-05-05T02:11:16.798Z,438.00
2023-05-05T02:12:16.750Z,438.00
2023-05-05T02:13:16.935Z,440.00
2023-05-05T02:14:16.767Z,438.00
2023-05-05T02:15:16.761Z,439.00
2023-05-05T02:16:16.911Z,437.00
2023-05-05T02:17:16.720Z,436.00
2023-05-05T02:18:16.699Z,437.00
2023-05-05T02:19:16.735Z,438.00
2023-05-05T02:20:16.746Z,439.00
2023-05-05T02:21:16.710Z,438.00
2023-05-05T02:22:16.708Z,437.00
2023-05-05T02:23:16.684Z,440.00
2023-05-05T02:24:16.707Z,441.00
2023-05-05T02:25:16.660Z,440.00
2023-05-05T02:26:16.685Z,440.00
2023-05-05T02:27:16.646Z,444.00
2023-05-05T02:28:16.645Z,443.00
2023-05-05T02:29:16.662Z,441.00
2023-05-05T02:30:16.670Z,442.00
2023-05-05T02:31:16.688Z,441.00
2023-05-05T02:32:16.631Z,440.00
2023-05-05T02:33:16.623Z,439.00
2023-05-05T02:34:16.626Z,441.00
2023-05-05T02:35:16.611Z,444.00
2023-05-05T02:36:16.606Z,443.00
2023-05-05T02:37:16.587Z,442.00
2023-05-05T02:38:16.570Z,443.00
2023-05-05T02:39:16.590Z,442.00
2023-05-05T02:40:16.595Z,442.00
2023-05-05T02:41:16.753Z,443.00
2023-05-05T02:42:16.567Z,444.00
2023-05-05T02:43:16.595Z,444.00
2023-05-05T02:44:16.546Z,443.00
2023-05-05T02:45:16.526Z,443.00
2023-05-05T02:46:16.605Z,442.00
2023-05-05T02:47:16.518Z,442.00
2023-05-05T02:48:16.523Z,444.00
2023-05-05T02:49:16.529Z,445.00
2023-05-05T02:50:16.494Z,445.00
2023-05-05T02:51:16.486Z,446.00
2023-05-05T02:52:16.472Z,446.00
2023-05-05T02:53:16.462Z,445.00
2023-05-05T02:54:16.489Z,446.00
2023-05-05T02:55:16.464Z,443.00
2023-05-05T02:56:16.442Z,443.00
2023-05-05T02:57:16.432Z,442.00
2023-05-05T02:58:16.448Z,443.00
2023-05-05T02:59:16.615Z,444.00
2023-05-05T03:00:16.417Z,442.00
2023-05-05T03:01:16.425Z,441.00
2023-05-05T03:02:16.403Z,441.00
2023-05-05T03:03:16.519Z,444.00
2023-05-05T03:04:16.397Z,446.00
2023-05-05T03:05:16.367Z,447.00
2023-05-05T03:06:16.553Z,447.00
2023-05-05T03:07:16.386Z,449.00
2023-05-05T03:08:16.345Z,448.00
2023-05-05T03:09:16.353Z,448.00
2023-05-05T03:10:16.341Z,446.00
2023-05-05T03:11:16.373Z,445.00
2023-05-05T03:12:16.398Z,443.00
2023-05-05T03:13:16.331Z,444.00
2023-05-05T03:14:16.342Z,447.00
2023-05-05T03:15:16.306Z,447.00
2023-05-05T03:16:16.340Z,448.00
2023-05-05T03:17:16.295Z,448.00
2023-05-05T03:18:16.295Z,448.00
2023-05-05T03:19:16.411Z,451.00
2023-05-05T03:20:16.297Z,450.00
2023-05-05T03:21:16.284Z,451.00
2023-05-05T03:22:16.278Z,453.00
2023-05-05T03:23:16.276Z,456.00
2023-05-05T03:24:16.236Z,457.00
2023-05-05T03:25:16.351Z,453.00
2023-05-05T03:26:16.260Z,453.00
2023-05-05T03:27:16.239Z,452.00
2023-05-05T03:28:16.257Z,453.00
2023-05-05T03:29:16.235Z,452.00
2023-05-05T03:30:16.210Z,452.00
2023-05-05T03:31:16.199Z,450.00
2023-05-05T03:32:16.181Z,450.00
2023-05-05T03:33:16.308Z,450.00
2023-05-05T03:34:16.287Z,451.00
2023-05-05T03:35:16.326Z,453.00
2023-05-05T03:36:16.389Z,454.00
2023-05-05T03:37:16.433Z,454.00
2023-05-05T03:38:16.471Z,454.00
2023-05-05T03:39:16.492Z,450.00
2023-05-05T03:40:16.576Z,449.00
2023-05-05T03:41:16.596Z,449.00
2023-05-05T03:42:16.656Z,450.00
2023-05-05T03:43:16.710Z,451.00
2023-05-05T03:44:16.731Z,447.00
2023-05-05T03:45:16.781Z,446.00
2023-05-05T03:46:16.821Z,445.00
2023-05-05T03:47:16.857Z,445.00
2023-05-05T03:48:16.841Z,443.00
2023-05-05T03:49:16.867Z,444.00
2023-05-05T03:50:16.879Z,444.00
2023-05-05T03:51:16.873Z,445.00
2023-05-05T03:52:16.887Z,443.00
2023-05-05T03:53:16.885Z,441.00
2023-05-05T03:54:16.886Z,442.00
2023-05-05T03:55:16.859Z,442.00
2023-05-05T03:56:16.898Z,444.00
2023-05-05T03:57:16.892Z,444.00
2023-05-05T03:58:16.902Z,444.00
2023-05-05T03:59:16.866Z,444.00
2023-05-05T04:00:16.877Z,445.00
2023-05-05T04:01:16.905Z,445.00
2023-05-05T04:02:18.575Z,445.00
2023-05-05T04:03:17.111Z,443.00
2023-05-05T04:04:16.966Z,442.00
2023-05-05T04:05:16.876Z,444.00
2023-05-05T04:06:16.882Z,445.00
2023-05-05T04:07:16.881Z,443.00
2023-05-05T04:08:16.926Z,444.00
2023-05-05T04:09:16.925Z,445.00
2023-05-05T04:10:16.914Z,446.00
2023-05-05T04:11:16.930Z,445.00
2023-05-05T04:12:16.989Z,444.00
2023-05-05T04:13:17.131Z,442.00
2023-05-05T04:14:17.024Z,442.00
2023-05-05T04:15:16.989Z,444.00
2023-05-05T04:16:17.013Z,445.00
2023-05-05T04:17:16.994Z,446.00
2023-05-05T04:18:16.966Z,445.00
2023-05-05T04:19:17.046Z,445.00
2023-05-05T04:20:17.003Z,443.00
2023-05-05T04:21:17.077Z,441.00
2023-05-05T04:22:17.083Z,440.00
2023-05-05T04:23:17.142Z,438.00
2023-05-05T04:24:17.142Z,439.00
2023-05-05T04:25:17.197Z,439.00
2023-05-05T04:26:17.267Z,438.00
2023-05-05T04:27:17.330Z,440.00
2023-05-05T04:28:18.227Z,441.00
2023-05-05T04:29:17.416Z,443.00
2023-05-05T04:30:17.461Z,443.00
2023-05-05T04:31:17.510Z,442.00
2023-05-05T04:32:17.591Z,442.00
2023-05-05T04:33:17.628Z,442.00
2023-05-05T04:34:17.720Z,441.00
2023-05-05T04:35:17.839Z,439.00
2023-05-05T04:36:17.845Z,440.00
2023-05-05T04:37:17.909Z,440.00
2023-05-05T04:38:17.997Z,440.00
2023-05-05T04:39:18.017Z,440.00
2023-05-05T04:40:18.117Z,443.00
2023-05-05T04:41:18.130Z,444.00
2023-05-05T04:42:18.223Z,443.00
2023-05-05T04:43:18.261Z,444.00
2023-05-05T04:44:18.327Z,444.00
2023-05-05T04:45:18.403Z,445.00
2023-05-05T04:46:18.502Z,444.00
2023-05-05T04:47:18.516Z,443.00
2023-05-05T04:48:18.599Z,445.00
2023-05-05T04:49:18.641Z,444.00
2023-05-05T04:50:18.725Z,446.00
2023-05-05T04:51:18.745Z,445.00
2023-05-05T04:52:18.817Z,448.00
2023-05-05T04:53:18.876Z,448.00
2023-05-05T04:54:18.961Z,446.00
2023-05-05T04:55:19.006Z,443.00
2023-05-05T04:56:19.072Z,443.00
2023-05-05T04:57:19.146Z,443.00
2023-05-05T04:58:19.182Z,444.00
2023-05-05T04:59:19.270Z,443.00
2023-05-05T05:00:19.289Z,442.00
2023-05-05T05:01:26.432Z,441.00
2023-05-05T05:02:19.440Z,442.00
2023-05-05T05:03:19.453Z,443.00
2023-05-05T05:04:19.338Z,440.00
2023-05-05T05:05:19.366Z,441.00
2023-05-05T05:06:19.352Z,442.00
2023-05-05T05:07:19.351Z,445.00
2023-05-05T05:08:19.345Z,445.00
2023-05-05T05:09:19.332Z,449.00
2023-05-05T05:10:19.317Z,450.00
2023-05-05T05:11:19.321Z,451.00
2023-05-05T05:12:19.288Z,452.00
2023-05-05T05:13:19.385Z,452.00
2023-05-05T05:14:19.309Z,449.00
2023-05-05T05:15:19.281Z,449.00
2023-05-05T05:16:19.295Z,448.00
2023-05-05T05:17:19.283Z,448.00
2023-05-05T05:18:19.275Z,450.00
2023-05-05T05:19:19.276Z,451.00
2023-05-05T05:20:19.261Z,454.00
2023-05-05T05:21:19.246Z,456.00
2023-05-05T05:22:19.337Z,457.00
2023-05-05T05:23:19.239Z,458.00
2023-05-05T05:24:19.248Z,458.00
2023-05-05T05:25:19.210Z,458.00
2023-05-05T05:26:19.215Z,457.00
2023-05-05T05:27:19.195Z,455.00
2023-05-05T05:28:19.218Z,457.00
2023-05-05T05:29:19.201Z,455.00
2023-05-05T05:30:19.159Z,456.00
2023-05-05T05:31:19.208Z,455.00
2023-05-05T05:32:19.640Z,454.00
2023-05-05T05:33:19.164Z,452.00
2023-05-05T05:34:19.153Z,526.00
2023-05-05T05:35:19.182Z,500.00
2023-05-05T05:36:19.190Z,505.00
2023-05-05T05:37:20.212Z,510.00
2023-05-05T05:38:19.180Z,514.00
2023-05-05T05:39:19.117Z,529.00
2023-05-05T05:40:19.167Z,611.00
2023-05-05T05:41:19.194Z,752.00
2023-05-05T05:42:19.169Z,591.00
2023-05-05T05:43:19.091Z,601.00
2023-05-05T05:44:19.115Z,601.00
2023-05-05T05:45:26.040Z,612.00
2023-05-05T05:46:19.731Z,693.00
2023-05-05T05:47:19.169Z,701.00
2023-05-05T05:48:19.075Z,695.00
2023-05-05T05:49:19.052Z,709.00
2023-05-05T05:50:19.064Z,691.00
2023-05-05T05:51:19.077Z,672.00
2023-05-05T05:52:19.150Z,679.00
2023-05-05T05:53:19.039Z,684.00
2023-05-05T05:54:19.013Z,688.00
2023-05-05T05:55:19.032Z,698.00
2023-05-05T05:56:18.986Z,757.00
2023-05-05T05:57:19.033Z,754.00
2023-05-05T05:58:18.969Z,751.00
2023-05-05T05:59:18.968Z,744.00
2023-05-05T06:00:18.952Z,756.00
2023-05-05T06:01:18.999Z,764.00
2023-05-05T06:02:18.972Z,746.00
2023-05-05T06:03:19.122Z,736.00
2023-05-05T06:04:18.982Z,735.00
2023-05-05T06:05:18.955Z,744.00
2023-05-05T06:06:18.928Z,786.00
2023-05-05T06:07:18.926Z,789.00
2023-05-05T06:08:18.938Z,796.00
2023-05-05T06:09:18.911Z,794.00
2023-05-05T06:10:28.056Z,794.00
2023-05-05T06:11:19.932Z,768.00
2023-05-05T06:12:18.927Z,751.00
2023-05-05T06:13:18.904Z,747.00
2023-05-05T06:14:20.104Z,698.00
2023-05-05T06:15:18.863Z,682.00
2023-05-05T06:16:18.912Z,673.00
2023-05-05T06:17:18.853Z,669.00
2023-05-05T06:18:18.923Z,666.00
2023-05-05T06:19:18.844Z,665.00
2023-05-05T06:20:18.920Z,660.00
2023-05-05T06:21:18.893Z,653.00
2023-05-05T06:22:18.927Z,647.00
2023-05-05T06:23:18.986Z,640.00
2023-05-05T06:24:19.044Z,633.00
2023-05-05T06:25:19.131Z,627.00
2023-05-05T06:26:19.193Z,622.00
2023-05-05T06:27:19.251Z,618.00
2023-05-05T06:28:19.668Z,617.00
2023-05-05T06:29:19.395Z,615.00
2023-05-05T06:30:19.430Z,612.00
2023-05-05T06:31:19.568Z,608.00
2023-05-05T06:32:19.576Z,608.00
2023-05-05T06:33:19.624Z,609.00
2023-05-05T06:34:19.704Z,608.00
2023-05-05T06:35:19.736Z,607.00
2023-05-05T06:36:19.854Z,607.00
2023-05-05T06:37:19.897Z,611.00
2023-05-05T06:38:19.925Z,607.00
2023-05-05T06:39:20.019Z,600.00
2023-05-05T06:40:20.033Z,579.00
2023-05-05T06:41:20.137Z,575.00
2023-05-05T06:42:20.155Z,567.00
2023-05-05T06:43:20.256Z,562.00
2023-05-05T06:44:20.288Z,559.00
2023-05-05T06:45:20.345Z,556.00
2023-05-05T06:46:20.581Z,552.00
2023-05-05T06:47:20.489Z,550.00
2023-05-05T06:48:20.725Z,547.00
2023-05-05T06:49:20.616Z,544.00
2023-05-05T06:50:20.706Z,540.00
2023-05-05T06:51:20.710Z,536.00
2023-05-05T06:52:20.780Z,532.00
2023-05-05T06:53:21.217Z,526.00
2023-05-05T06:54:20.924Z,524.00
2023-05-05T06:55:20.963Z,519.00
2023-05-05T06:56:21.048Z,519.00
2023-05-05T06:57:21.098Z,516.00
2023-05-05T06:58:21.261Z,512.00
2023-05-05T06:59:21.196Z,508.00
2023-05-05T07:00:21.277Z,508.00
2023-05-05T07:01:21.314Z,505.00
2023-05-05T07:02:21.333Z,501.00
2023-05-05T07:03:21.447Z,498.00
2023-05-05T07:04:21.427Z,499.00
2023-05-05T07:05:21.463Z,495.00
2023-05-05T07:06:21.553Z,493.00
2023-05-05T07:07:21.570Z,492.00
2023-05-05T07:08:21.592Z,489.00
2023-05-05T07:09:21.682Z,488.00
2023-05-05T07:10:21.702Z,486.00
2023-05-05T07:11:21.702Z,483.00
2023-05-05T07:12:21.764Z,479.00
2023-05-05T07:13:21.771Z,477.00
2023-05-05T07:14:24.260Z,473.00
2023-05-05T07:15:28.750Z,472.00
2023-05-05T07:16:22.869Z,470.00
2023-05-05T07:17:21.790Z,470.00
2023-05-05T07:18:21.821Z,469.00
2023-05-05T07:19:21.750Z,465.00
2023-05-05T07:20:21.771Z,464.00
2023-05-05T07:21:21.763Z,458.00
2023-05-05T07:22:21.725Z,454.00
2023-05-05T07:23:21.728Z,453.00
2023-05-05T07:24:21.788Z,450.00
2023-05-05T07:25:21.731Z,451.00
2023-05-05T07:26:21.768Z,451.00
2023-05-05T07:27:21.752Z,450.00
2023-05-05T07:28:21.692Z,560.00
2023-05-05T07:29:21.712Z,745.00
2023-05-05T07:30:22.069Z,610.00
2023-05-05T07:31:21.740Z,619.00
2023-05-05T07:32:21.802Z,625.00
2023-05-05T07:33:21.759Z,655.00
2023-05-05T07:34:21.756Z,647.00
2023-05-05T07:35:21.832Z,821.00
2023-05-05T07:36:21.876Z,703.00
2023-05-05T07:37:21.973Z,689.00
2023-05-05T07:38:22.025Z,671.00
2023-05-05T07:39:25.695Z,657.00
2023-05-05T07:40:22.075Z,656.00
2023-05-05T07:41:22.062Z,783.00
2023-05-05T07:42:22.080Z,738.00
2023-05-05T07:43:22.062Z,778.00
2023-05-05T07:44:22.042Z,757.00
2023-05-05T07:45:22.034Z,700.00
2023-05-05T07:46:22.117Z,699.00
2023-05-05T07:47:22.089Z,697.00
2023-05-05T07:48:22.042Z,699.00
2023-05-05T07:49:21.997Z,707.00
2023-05-05T07:50:22.029Z,688.00
2023-05-05T07:51:21.969Z,676.00
2023-05-05T07:52:33.118Z,667.00
2023-05-05T07:53:22.989Z,672.00
2023-05-05T07:54:21.995Z,673.00
2023-05-05T07:55:21.956Z,674.00
2023-05-05T07:56:21.988Z,670.00
2023-05-05T07:57:22.685Z,674.00
2023-05-05T07:58:21.933Z,672.00
2023-05-05T07:59:21.922Z,770.00
2023-05-05T08:00:21.930Z,671.00
2023-05-05T08:01:21.919Z,673.00
2023-05-05T08:02:22.128Z,624.00
2023-05-05T08:03:22.031Z,612.00
2023-05-05T08:04:21.968Z,582.00
2023-05-05T08:05:21.930Z,574.00
2023-05-05T08:06:21.883Z,571.00
2023-05-05T08:07:21.945Z,560.00
2023-05-05T08:08:21.993Z,552.00
2023-05-05T08:09:22.043Z,526.00
2023-05-05T08:10:22.140Z,521.00
2023-05-05T08:11:22.209Z,517.00
2023-05-05T08:12:22.228Z,513.00
2023-05-05T08:13:22.316Z,507.00
2023-05-05T08:14:22.390Z,503.00
2023-05-05T08:15:22.492Z,499.00
2023-05-05T08:16:22.565Z,495.00
2023-05-05T08:17:22.618Z,491.00
2023-05-05T08:18:22.727Z,487.00
2023-05-05T08:19:29.373Z,486.00
2023-05-05T08:20:23.710Z,478.00
2023-05-05T08:21:22.666Z,470.00
2023-05-05T08:22:22.696Z,465.00
2023-05-05T08:23:22.673Z,462.00
2023-05-05T08:24:22.753Z,459.00
2023-05-05T08:25:22.661Z,455.00
2023-05-05T08:26:22.620Z,450.00
2023-05-05T08:27:23.256Z,444.00
2023-05-05T08:28:22.637Z,445.00
2023-05-05T08:29:22.604Z,445.00
2023-05-05T08:30:22.598Z,442.00
2023-05-05T08:31:22.753Z,439.00
2023-05-05T08:32:22.579Z,435.00
2023-05-05T08:33:22.732Z,432.00
2023-05-05T08:34:22.789Z,427.00
2023-05-05T08:35:22.581Z,425.00
2023-05-05T08:36:22.594Z,416.00
2023-05-05T08:37:22.686Z,417.00
2023-05-05T08:38:22.563Z,418.00
2023-05-05T08:39:22.568Z,417.00
2023-05-05T08:40:22.725Z,419.00
2023-05-05T08:41:22.542Z,419.00
2023-05-05T08:42:36.157Z,418.00
2023-05-05T08:43:23.542Z,416.00
2023-05-05T08:44:22.553Z,412.00
2023-05-05T08:45:22.545Z,410.00
2023-05-05T08:46:22.652Z,409.00
2023-05-05T08:47:22.540Z,407.00
2023-05-05T08:48:22.772Z,405.00
2023-05-05T08:49:22.544Z,405.00
2023-05-05T08:50:22.677Z,407.00
2023-05-05T08:51:22.531Z,405.00
2023-05-05T08:52:22.691Z,597.00
2023-05-05T08:53:22.719Z,548.00
2023-05-05T08:54:22.719Z,548.00
2023-05-05T08:55:22.782Z,688.00
2023-05-05T08:56:22.818Z,662.00
2023-05-05T08:57:22.896Z,684.00
2023-05-05T08:58:59.678Z,660.00
2023-05-05T08:59:59.682Z,691.00
2023-05-05T09:00:59.663Z,703.00
2023-05-05T09:01:59.653Z,773.00
2023-05-05T09:03:00.030Z,802.00
2023-05-05T09:03:59.634Z,851.00
2023-05-05T09:04:59.639Z,650.00
2023-05-05T09:05:59.604Z,657.00
2023-05-05T09:06:59.647Z,717.00
2023-05-05T09:07:59.892Z,733.00
2023-05-05T09:08:59.753Z,675.00
2023-05-05T09:09:59.601Z,682.00
2023-05-05T09:10:59.563Z,672.00
2023-05-05T09:11:59.576Z,666.00
2023-05-05T09:12:59.695Z,712.00
2023-05-05T09:13:59.561Z,669.00
2023-05-05T09:14:59.594Z,673.00
2023-05-05T09:16:00.410Z,682.00
2023-05-05T09:16:59.615Z,626.00
2023-05-05T09:17:59.566Z,632.00
2023-05-05T09:18:59.526Z,632.00
2023-05-05T09:19:59.557Z,622.00
2023-05-05T09:20:59.744Z,706.00
2023-05-05T09:21:59.724Z,664.00
2023-05-05T09:22:59.544Z,690.00
2023-05-05T09:24:07.442Z,732.00
2023-05-05T09:25:00.485Z,733.00
2023-05-05T09:25:59.486Z,747.00
2023-05-05T09:26:59.482Z,733.00
2023-05-05T09:27:59.459Z,747.00
2023-05-05T09:28:59.486Z,708.00
2023-05-05T09:29:59.470Z,688.00
2023-05-05T09:30:59.523Z,683.00
2023-05-05T09:31:59.464Z,689.00
2023-05-05T09:32:59.571Z,700.00
2023-05-05T09:33:59.914Z,691.00
2023-05-05T09:34:59.453Z,693.00
2023-05-05T09:35:59.408Z,742.00
2023-05-05T09:36:59.415Z,739.00
2023-05-05T09:37:59.508Z,801.00
2023-05-05T09:38:59.436Z,747.00
2023-05-05T09:39:59.363Z,754.00
2023-05-05T09:40:59.360Z,756.00
2023-05-05T09:41:59.384Z,746.00
2023-05-05T09:42:59.360Z,792.00
2023-05-05T09:43:59.386Z,786.00
2023-05-05T09:44:59.993Z,763.00
2023-05-05T09:45:59.448Z,719.00
2023-05-05T09:46:59.493Z,791.00
2023-05-05T09:48:00.610Z,736.00
2023-05-05T09:48:59.883Z,758.00
2023-05-05T09:49:59.640Z,773.00
2023-05-05T09:50:59.716Z,702.00
2023-05-05T09:51:59.777Z,683.00
2023-05-05T09:52:59.818Z,712.00
2023-05-05T09:54:00.500Z,727.00
2023-05-05T09:54:59.943Z,790.00
2023-05-05T09:56:00.019Z,826.00
2023-05-05T09:57:00.163Z,916.00
2023-05-05T09:58:00.202Z,894.00
2023-05-05T09:59:00.525Z,891.00
2023-05-05T10:00:00.258Z,896.00
2023-05-05T10:01:00.396Z,903.00
2023-05-05T10:02:00.433Z,907.00
2023-05-05T10:03:00.432Z,910.00
2023-05-05T10:04:00.447Z,918.00
2023-05-05T10:05:02.282Z,921.00
2023-05-05T10:06:00.570Z,914.00
2023-05-05T10:07:00.616Z,907.00
2023-05-05T10:08:00.705Z,892.00
2023-05-05T10:09:00.739Z,891.00
2023-05-05T10:10:00.956Z,885.00
2023-05-05T10:11:00.913Z,874.00
2023-05-05T10:12:00.929Z,860.00
2023-05-05T10:13:00.951Z,850.00
2023-05-05T10:14:00.997Z,848.00
2023-05-05T10:15:00.997Z,836.00
2023-05-05T10:16:01.030Z,826.00
2023-05-05T10:17:01.065Z,825.00
2023-05-05T10:18:07.415Z,822.00
2023-05-05T10:19:02.055Z,822.00
2023-05-05T10:20:01.047Z,819.00
2023-05-05T10:21:01.073Z,814.00
2023-05-05T10:22:01.054Z,809.00
2023-05-05T10:23:01.030Z,806.00
2023-05-05T10:24:01.039Z,804.00
2023-05-05T10:25:01.004Z,801.00
2023-05-05T10:26:01.085Z,792.00
2023-05-05T10:27:01.003Z,773.00
2023-05-05T10:28:00.987Z,763.00
2023-05-05T10:29:00.993Z,755.00
2023-05-05T10:30:01.024Z,750.00
2023-05-05T10:31:00.971Z,747.00
2023-05-05T10:32:10.254Z,746.00
2023-05-05T10:33:18.217Z,744.00
2023-05-05T10:34:02.078Z,737.00
2023-05-05T10:35:00.938Z,735.00
2023-05-05T10:36:00.970Z,735.00
2023-05-05T10:37:00.990Z,732.00
2023-05-05T10:38:00.936Z,728.00
2023-05-05T10:39:01.381Z,726.00
2023-05-05T10:40:00.924Z,725.00
2023-05-05T10:41:00.935Z,720.00
2023-05-05T10:42:00.961Z,716.00
2023-05-05T10:43:00.898Z,712.00
2023-05-05T10:44:04.330Z,706.00
2023-05-05T10:45:01.012Z,701.00
2023-05-05T10:46:01.040Z,698.00
2023-05-05T10:47:00.890Z,698.00
2023-05-05T10:48:00.910Z,698.00
2023-05-05T10:49:00.960Z,699.00
2023-05-05T10:50:00.848Z,696.00
2023-05-05T10:51:00.876Z,689.00
2023-05-05T10:52:00.868Z,684.00
2023-05-05T10:53:00.813Z,682.00
2023-05-05T10:54:00.919Z,678.00
2023-05-05T10:55:00.825Z,675.00
2023-05-05T10:56:00.827Z,673.00
2023-05-05T10:57:00.788Z,669.00
2023-05-05T10:58:00.817Z,668.00
2023-05-05T10:59:01.024Z,666.00
2023-05-05T11:00:00.809Z,663.00
2023-05-05T11:01:00.810Z,659.00
2023-05-05T11:02:00.770Z,654.00
2023-05-05T11:03:00.880Z,652.00
2023-05-05T11:04:00.815Z,651.00
2023-05-05T11:05:00.741Z,648.00
2023-05-05T11:06:00.757Z,646.00
2023-05-05T11:07:00.722Z,644.00
2023-05-05T11:08:00.737Z,644.00
2023-05-05T11:09:00.713Z,642.00
2023-05-05T11:10:00.728Z,640.00
2023-05-05T11:11:00.721Z,638.00
2023-05-05T11:12:00.693Z,632.00
2023-05-05T11:13:00.732Z,626.00
2023-05-05T11:14:00.707Z,625.00
2023-05-05T11:15:00.725Z,620.00
2023-05-05T11:16:00.694Z,618.00
2023-05-05T11:17:00.817Z,617.00
2023-05-05T11:18:01.889Z,614.00
2023-05-05T11:19:00.761Z,605.00
2023-05-05T11:20:00.780Z,603.00
2023-05-05T11:21:00.741Z,602.00
2023-05-05T11:22:00.716Z,601.00
2023-05-05T11:23:00.739Z,600.00
2023-05-05T11:24:00.705Z,600.00
2023-05-05T11:25:00.716Z,600.00
2023-05-05T11:26:00.704Z,599.00
2023-05-05T11:27:00.721Z,598.00
2023-05-05T11:28:00.695Z,599.00
2023-05-05T11:29:00.689Z,594.00
2023-05-05T11:30:00.981Z,588.00
2023-05-05T11:31:00.695Z,585.00
2023-05-05T11:32:00.688Z,586.00
2023-05-05T11:33:01.441Z,584.00
2023-05-05T11:34:00.747Z,580.00
2023-05-05T11:35:00.967Z,575.00
2023-05-05T11:36:01.765Z,573.00
2023-05-05T11:37:00.696Z,570.00
2023-05-05T11:38:00.664Z,562.00
2023-05-05T11:39:00.694Z,559.00
2023-05-05T11:40:00.683Z,560.00
2023-05-05T11:41:00.652Z,561.00
2023-05-05T11:42:03.836Z,557.00
2023-05-05T11:43:01.643Z,555.00
2023-05-05T11:44:00.662Z,555.00
2023-05-05T11:45:00.667Z,553.00
2023-05-05T11:46:00.726Z,556.00
2023-05-05T11:47:00.633Z,557.00
2023-05-05T11:48:00.758Z,558.00
2023-05-05T11:49:00.648Z,556.00
2023-05-05T11:50:00.943Z,553.00
2023-05-05T11:51:00.602Z,553.00
2023-05-05T11:52:00.605Z,550.00
2023-05-05T11:53:00.611Z,548.00
2023-05-05T11:54:00.577Z,550.00
2023-05-05T11:55:00.585Z,548.00
2023-05-05T11:56:00.569Z,546.00
2023-05-05T11:57:00.527Z,546.00
2023-05-05T11:58:00.559Z,545.00
2023-05-05T11:59:00.543Z,545.00
2023-05-05T12:00:00.640Z,543.00
2023-05-05T12:01:00.492Z,543.00
2023-05-05T12:02:00.524Z,539.00
2023-05-05T12:03:00.580Z,534.00
2023-05-05T12:04:00.634Z,534.00
2023-05-05T12:05:00.553Z,534.00
2023-05-05T12:06:00.481Z,533.00
2023-05-05T12:07:00.468Z,530.00
2023-05-05T12:08:00.514Z,527.00
2023-05-05T12:09:00.473Z,527.00
2023-05-05T12:10:00.494Z,525.00
2023-05-05T12:11:00.416Z,523.00
2023-05-05T12:12:00.457Z,517.00
2023-05-05T12:13:00.450Z,513.00
2023-05-05T12:14:00.411Z,511.00
2023-05-05T12:15:00.434Z,509.00
2023-05-05T12:16:00.452Z,507.00
2023-05-05T12:17:00.378Z,506.00
2023-05-05T12:18:02.799Z,505.00
2023-05-05T12:19:00.420Z,504.00
2023-05-05T12:20:00.371Z,502.00
2023-05-05T12:21:00.417Z,502.00
2023-05-05T12:22:00.365Z,500.00
2023-05-05T12:23:00.337Z,500.00
2023-05-05T12:24:00.375Z,500.00
2023-05-05T12:25:00.429Z,499.00
2023-05-05T12:26:00.330Z,497.00
2023-05-05T12:27:00.317Z,492.00
2023-05-05T12:28:00.356Z,491.00
2023-05-05T12:29:00.333Z,487.00